Time;durP1;ratioP1;P1;durP2;ratioP2;P2;SDS_P1;SDS_P2;PMS_P1;PMS_P2;Temp;Humidity;BMP_temperature;BMP_pressure;BME280_temperature;BME280_humidity;BME280_pressure;Samples;Min_cycle;Max_cycle;Signal;HPM_P1;HPM_P2
2024/01/25 00:01:07;;;;;;;30.77;24.07;;;;;;;4.25;100.00;147120.97;5132995;27;20175;-59
2024/01/25 00:03:34;;;;;;;38.97;24.07;;;;;;;4.24;100.00;147118.50;5133360;27;20237;-59
2024/01/25 00:06:01;;;;;;;31.13;22.57;;;;;;;4.21;100.00;147110.91;5133204;27;20179;-59
2024/01/25 00:08:29;;;;;;;34.57;23.53;;;;;;;3.93;100.00;147043.06;5133115;27;20187;-59
2024/01/25 00:10:57;;;;;;;32.03;22.73;;;;;;;3.80;100.00;147010.38;5132271;27;20179;-58
2024/01/25 00:13:24;;;;;;;33.60;22.80;;;;;;;3.98;100.00;147055.66;5132525;27;20242;-58
2024/01/25 00:15:51;;;;;;;30.47;22.07;;;;;;;3.97;100.00;147051.84;5133141;27;20286;-60
2024/01/25 00:18:18;;;;;;;32.13;21.97;;;;;;;3.84;100.00;147020.44;5132756;27;20274;-60
2024/01/25 00:20:45;;;;;;;32.07;21.07;;;;;;;3.93;100.00;147043.06;5133079;27;20179;-59
2024/01/25 00:23:12;;;;;;;28.90;21.03;;;;;;;4.00;100.00;147060.66;5132802;27;20640;-60
2024/01/25 00:25:39;;;;;;;29.10;21.30;;;;;;;3.90;100.00;147035.53;5133071;27;20573;-58
2024/01/25 00:28:08;;;;;;;29.30;21.27;;;;;;;3.87;100.00;147026.69;5132627;27;20270;-58
2024/01/25 00:30:35;;;;;;;27.70;20.60;;;;;;;3.98;100.00;147055.66;5132589;27;20182;-58
2024/01/25 00:33:02;;;;;;;36.67;21.53;;;;;;;4.02;100.00;147064.44;5132772;28;20272;-59
2024/01/25 00:35:30;;;;;;;30.47;20.07;;;;;;;4.02;100.00;147065.69;5132544;28;20187;-60
2024/01/25 00:37:57;;;;;;;27.87;20.73;;;;;;;4.00;100.00;147060.66;5132882;27;20236;-59
2024/01/25 00:40:25;;;;;;;39.33;21.07;;;;;;;3.95;100.00;147046.81;5132883;27;20179;-58
2024/01/25 00:42:53;;;;;;;27.40;20.67;;;;;;;4.01;100.00;147061.91;5132467;27;20235;-60
2024/01/25 00:45:23;;;;;;;35.67;20.90;;;;;;;3.99;100.00;147058.13;5132756;28;20206;-59
2024/01/25 00:47:51;;;;;;;31.27;20.53;;;;;;;3.96;100.00;147049.31;5132437;27;20236;-59
2024/01/25 00:50:20;;;;;;;32.77;21.37;;;;;;;3.49;100.00;146933.69;5132755;27;20183;-58
2024/01/25 00:52:48;;;;;;;32.60;21.73;;;;;;;3.80;100.00;147010.38;5132323;28;20202;-59
2024/01/25 00:55:16;;;;;;;32.17;22.80;;;;;;;3.73;100.00;146991.53;5132268;28;20300;-58
2024/01/25 00:57:44;;;;;;;30.20;23.17;;;;;;;3.73;100.00;146991.53;5132339;28;20225;-59
2024/01/25 01:00:12;;;;;;;31.33;21.80;;;;;;;3.59;100.00;146957.59;5132619;28;20182;-58
2024/01/25 01:02:44;;;;;;;35.97;23.73;;;;;;;3.48;100.00;146929.97;5132720;27;20195;-59
2024/01/25 01:05:13;;;;;;;41.60;23.43;;;;;;;3.31;100.00;146887.25;5132613;27;20232;-59
2024/01/25 01:07:41;;;;;;;40.80;23.37;;;;;;;3.48;100.00;146929.97;5133027;27;20183;-58
2024/01/25 01:10:10;;;;;;;33.33;21.80;;;;;;;3.37;100.00;146902.28;5132565;28;20265;-59
2024/01/25 01:12:37;;;;;;;37.13;21.93;;;;;;;3.29;100.00;146883.47;5132134;27;20238;-59
2024/01/25 01:15:05;;;;;;;29.73;22.60;;;;;;;3.48;100.00;146929.97;5132209;28;20191;-59
2024/01/25 01:17:32;;;;;;;41.43;25.00;;;;;;;3.45;100.00;146923.66;5132407;27;20191;-58
2024/01/25 01:20:00;;;;;;;47.60;25.73;;;;;;;3.49;100.00;146933.69;5132501;27;20206;-59
2024/01/25 01:22:27;;;;;;;45.17;25.13;;;;;;;3.49;100.00;146932.44;5132779;27;20338;-59
2024/01/25 01:24:54;;;;;;;30.47;22.17;;;;;;;3.31;100.00;146887.25;5136284;27;20191;-59
2024/01/25 01:27:23;;;;;;;36.53;24.10;;;;;;;3.43;100.00;146917.38;5135885;27;20179;-58
2024/01/25 01:29:50;;;;;;;38.53;22.50;;;;;;;3.37;100.00;146902.28;5136240;27;20183;-58
2024/01/25 01:32:17;;;;;;;40.67;24.30;;;;;;;3.31;100.00;146887.25;5135705;27;20280;-58
2024/01/25 01:34:44;;;;;;;34.97;23.37;;;;;;;3.30;100.00;146884.72;5136190;27;20248;-58
2024/01/25 01:37:12;;;;;;;38.47;23.37;;;;;;;3.29;100.00;146883.47;5135792;27;20182;-59
2024/01/25 01:39:39;;;;;;;31.53;22.70;;;;;;;3.31;100.00;146888.47;5136094;27;20629;-59
2024/01/25 01:42:06;;;;;;;35.50;24.87;;;;;;;3.29;100.00;146882.19;5136139;27;20183;-57
2024/01/25 01:44:33;;;;;;;31.57;23.77;;;;;;;3.13;100.00;146843.28;5135579;27;20189;-59
2024/01/25 01:47:00;;;;;;;38.97;23.87;;;;;;;2.96;100.00;146800.56;5135498;27;20183;-60
2024/01/25 01:49:27;;;;;;;31.93;22.77;;;;;;;2.85;100.00;146774.16;5135861;27;20599;-59
2024/01/25 01:51:55;;;;;;;24.07;17.83;;;;;;;2.83;100.00;146769.16;5135704;27;20633;-59
2024/01/25 01:54:25;;;;;;;26.70;19.70;;;;;;;2.83;100.00;146769.16;5135652;27;20230;-60
2024/01/25 01:56:53;;;;;;;33.27;21.33;;;;;;;2.87;100.00;146777.94;5135750;27;20526;-59
2024/01/25 01:59:21;;;;;;;27.53;21.00;;;;;;;2.77;100.00;146754.06;5135355;27;20193;-58
2024/01/25 02:01:48;;;;;;;21.67;17.80;;;;;;;2.98;100.00;146806.81;5135707;27;20199;-59
2024/01/25 02:04:15;;;;;;;24.87;18.53;;;;;;;3.00;100.00;146811.88;5135787;27;20555;-59
2024/01/25 02:06:45;;;;;;;22.70;16.93;;;;;;;3.11;100.00;146839.47;5135511;27;20244;-59
2024/01/25 02:09:13;;;;;;;19.47;15.43;;;;;;;3.08;100.00;146831.97;5135409;27;20629;-59
2024/01/25 02:11:41;;;;;;;22.70;18.27;;;;;;;2.94;100.00;146796.78;5135054;27;20182;-59
2024/01/25 02:14:10;;;;;;;20.70;16.77;;;;;;;3.38;100.00;146906.06;5135019;27;20206;-59
2024/01/25 02:16:37;;;;;;;21.63;16.93;;;;;;;3.33;100.00;146892.25;5135246;27;20648;-59
2024/01/25 02:19:04;;;;;;;20.93;17.30;;;;;;;3.51;100.00;146938.75;5135387;27;20203;-59
2024/01/25 02:21:32;;;;;;;18.77;16.40;;;;;;;3.21;100.00;146864.63;5134953;27;20251;-59
2024/01/25 02:24:00;;;;;;;18.47;16.57;;;;;;;3.53;100.00;146942.50;5135264;27;20183;-58
2024/01/25 02:26:27;;;;;;;23.97;17.23;;;;;;;3.58;100.00;146955.06;5135141;27;20236;-58
2024/01/25 02:28:54;;;;;;;17.00;15.33;;;;;;;3.61;100.00;146962.59;5134742;27;20244;-59
2024/01/25 02:31:21;;;;;;;17.37;15.57;;;;;;;3.52;100.00;146940.00;5135191;27;20248;-59
2024/01/25 02:33:48;;;;;;;19.57;15.87;;;;;;;3.60;100.00;146960.13;5134387;27;20198;-58
2024/01/25 02:36:15;;;;;;;16.50;14.00;;;;;;;3.40;100.00;146909.81;5134301;27;20183;-59
2024/01/25 02:38:42;;;;;;;20.87;15.40;;;;;;;3.44;100.00;146921.13;5135153;27;20243;-59
2024/01/25 02:41:11;;;;;;;19.40;15.63;;;;;;;3.45;100.00;146922.38;5134720;27;20186;-58
2024/01/25 02:43:38;;;;;;;17.80;15.77;;;;;;;3.45;100.00;146923.66;5134461;27;20210;-60
2024/01/25 02:46:05;;;;;;;19.10;14.90;;;;;;;3.56;100.00;146950.06;5134483;27;20194;-59
2024/01/25 02:48:32;;;;;;;19.37;15.70;;;;;;;3.59;100.00;146957.59;5134898;27;20658;-59
2024/01/25 02:50:59;;;;;;;17.37;15.33;;;;;;;3.73;100.00;146991.53;5134783;27;20686;-59
2024/01/25 02:53:26;;;;;;;18.13;15.13;;;;;;;3.79;100.00;147007.84;5134244;27;20252;-59
2024/01/25 02:55:53;;;;;;;23.73;17.27;;;;;;;3.88;100.00;147030.47;5134208;27;20722;-58
2024/01/25 02:58:22;;;;;;;22.13;16.70;;;;;;;3.86;100.00;147024.22;5134258;27;20187;-59
2024/01/25 03:00:49;;;;;;;24.27;18.63;;;;;;;4.10;100.00;147085.81;5134535;27;20179;-59
2024/01/25 03:03:16;;;;;;;26.53;18.33;;;;;;;4.08;100.00;147080.75;5134107;27;20244;-60
2024/01/25 03:05:43;;;;;;;28.17;19.60;;;;;;;3.93;100.00;147043.06;5133970;27;20195;-59
2024/01/25 03:08:10;;;;;;;19.80;15.93;;;;;;;3.79;100.00;147006.59;5134280;27;20232;-58
2024/01/25 03:10:37;;;;;;;19.23;16.20;;;;;;;3.71;100.00;146987.75;5133895;27;20209;-58
2024/01/25 03:13:04;;;;;;;17.87;15.97;;;;;;;3.78;100.00;147004.09;5134048;27;20271;-59
2024/01/25 03:15:33;;;;;;;18.43;15.80;;;;;;;3.80;100.00;147010.38;5134172;27;20645;-59
2024/01/25 03:18:00;;;;;;;19.00;16.80;;;;;;;3.80;100.00;147010.38;5133977;27;20183;-59
2024/01/25 03:20:27;;;;;;;21.57;16.47;;;;;;;4.05;100.00;147071.97;5133951;27;20236;-60
2024/01/25 03:22:54;;;;;;;25.53;18.77;;;;;;;4.09;100.00;147083.28;5134150;27;20547;-59
2024/01/25 03:25:21;;;;;;;26.27;17.93;;;;;;;4.11;100.00;147087.06;5133756;27;20225;-58
2024/01/25 03:27:48;;;;;;;26.07;17.87;;;;;;;3.89;100.00;147033.00;5133937;27;20191;-58
2024/01/25 03:30:16;;;;;;;26.77;18.83;;;;;;;3.81;100.00;147012.91;5133541;27;20235;-58
2024/01/25 03:32:44;;;;;;;24.27;17.37;;;;;;;3.72;100.00;146990.28;5133826;27;20278;-58
2024/01/25 03:35:11;;;;;;;27.63;18.47;;;;;;;3.49;100.00;146933.69;5133771;27;20183;-59
2024/01/25 03:37:38;;;;;;;21.53;17.97;;;;;;;3.37;100.00;146903.56;5133746;27;20183;-59
2024/01/25 03:40:06;;;;;;;23.03;16.93;;;;;;;3.32;100.00;146889.72;5133654;27;20232;-59
2024/01/25 03:42:33;;;;;;;22.73;17.47;;;;;;;3.48;100.00;146931.19;5133807;27;20610;-58
2024/01/25 03:45:00;;;;;;;22.47;16.60;;;;;;;3.53;100.00;146942.50;5133312;27;20236;-59
2024/01/25 03:47:27;;;;;;;22.17;17.47;;;;;;;3.32;100.00;146889.72;5133408;27;20605;-58
2024/01/25 03:49:56;;;;;;;21.80;16.50;;;;;;;3.59;100.00;146958.84;5133406;27;20248;-58
2024/01/25 03:52:23;;;;;;;20.53;17.00;;;;;;;3.59;100.00;146958.84;5133142;27;20187;-60
2024/01/25 03:54:50;;;;;;;21.20;16.70;;;;;;;3.48;100.00;146929.97;5132829;27;20265;-59
2024/01/25 03:57:17;;;;;;;25.03;19.17;;;;;;;3.32;100.00;146889.72;5133391;27;20187;-59
2024/01/25 03:59:44;;;;;;;22.97;17.63;;;;;;;3.18;100.00;146855.84;5133573;27;20275;-59
2024/01/25 04:02:11;;;;;;;26.43;17.13;;;;;;;3.03;100.00;146819.38;5133398;27;20652;-60
2024/01/25 04:04:38;;;;;;;17.83;15.90;;;;;;;2.87;100.00;146779.22;5133177;27;20243;-58
2024/01/25 04:07:07;;;;;;;19.77;16.07;;;;;;;3.01;100.00;146814.34;5133363;27;20240;-60
2024/01/25 04:09:34;;;;;;;20.87;15.97;;;;;;;3.10;100.00;146836.97;5132994;27;20191;-59
2024/01/25 04:12:01;;;;;;;18.00;14.10;;;;;;;2.99;100.00;146809.34;5132888;27;20182;-59
2024/01/25 04:14:28;;;;;;;18.40;14.03;;;;;;;3.15;100.00;146849.53;5133186;27;20206;-59
2024/01/25 04:16:55;;;;;;;18.03;14.50;;;;;;;3.44;100.00;146921.13;5132969;27;20243;-59
2024/01/25 04:19:22;;;;;;;14.63;13.33;;;;;;;3.28;100.00;146880.94;5132947;27;20214;-59
2024/01/25 04:21:49;;;;;;;17.77;14.73;;;;;;;3.14;100.00;146847.00;5133069;27;20216;-59
2024/01/25 04:24:17;;;;;;;16.77;14.73;;;;;;;3.09;100.00;146834.47;5132644;27;20174;-59
2024/01/25 04:26:44;;;;;;;18.40;16.50;;;;;;;3.14;100.00;146847.00;5133246;27;20590;-59
2024/01/25 04:29:11;;;;;;;21.70;17.83;;;;;;;2.79;100.00;146759.13;5133206;27;20182;-58
2024/01/25 04:31:44;;;;;;;25.77;18.50;;;;;;;3.20;100.00;146862.09;5132659;27;20216;-60
2024/01/25 04:34:11;;;;;;;32.13;21.97;;;;;;;3.11;100.00;146839.47;5132639;28;20213;-59
2024/01/25 04:36:38;;;;;;;32.03;22.33;;;;;;;2.78;100.00;146755.34;5132918;27;20182;-59
2024/01/25 04:39:05;;;;;;;34.57;22.37;;;;;;;2.69;100.00;146733.97;5132826;28;20555;-58
2024/01/25 04:41:34;;;;;;;35.03;22.93;;;;;;;2.61;100.00;146713.91;5132556;28;20232;-59
2024/01/25 04:44:01;;;;;;;38.10;25.03;;;;;;;2.61;100.00;146715.16;5133080;27;20194;-59
2024/01/25 04:46:28;;;;;;;44.40;27.47;;;;;;;2.60;100.00;146711.38;5132376;28;20218;-58
2024/01/25 04:48:55;;;;;;;48.30;32.50;;;;;;;2.76;100.00;146751.53;5132680;28;20576;-59
2024/01/25 04:51:22;;;;;;;57.20;33.97;;;;;;;2.77;100.00;146754.06;5132526;28;20199;-58
2024/01/25 04:53:49;;;;;;;50.70;33.47;;;;;;;2.80;100.00;146761.59;5132633;28;20658;-58
2024/01/25 04:56:16;;;;;;;46.03;31.37;;;;;;;2.72;100.00;146742.75;5132333;28;20183;-59
2024/01/25 04:58:44;;;;;;;55.00;33.03;;;;;;;2.80;100.00;146761.59;5135317;27;20239;-58
2024/01/25 05:01:11;;;;;;;51.20;31.80;;;;;;;2.90;100.00;146785.47;5136550;27;20236;-59
2024/01/25 05:03:39;;;;;;;49.50;32.07;;;;;;;2.98;100.00;146805.56;5136664;27;20186;-59
2024/01/25 05:06:06;;;;;;;55.27;31.43;;;;;;;3.14;100.00;146847.00;5136584;27;20239;-58
2024/01/25 05:08:33;;;;;;;54.70;30.67;;;;;;;3.12;100.00;146840.75;5136517;27;20644;-58
2024/01/25 05:11:00;;;;;;;42.53;28.67;;;;;;;3.15;100.00;146848.25;5136495;27;20190;-59
2024/01/25 05:13:27;;;;;;;47.17;29.33;;;;;;;2.87;100.00;146779.22;5136019;27;20202;-58
2024/01/25 05:15:56;;;;;;;48.43;30.67;;;;;;;3.05;100.00;146824.44;5136292;27;20606;-59
2024/01/25 05:18:24;;;;;;;44.07;29.53;;;;;;;2.94;100.00;146796.78;5136168;27;20194;-58
2024/01/25 05:20:51;;;;;;;44.03;28.67;;;;;;;3.04;100.00;146821.91;5135959;27;20282;-58
2024/01/25 05:23:18;;;;;;;43.37;28.00;;;;;;;3.10;100.00;146836.97;5135887;27;20179;-58
2024/01/25 05:25:45;;;;;;;42.73;27.87;;;;;;;3.17;100.00;146853.31;5136113;27;20195;-60
2024/01/25 05:28:12;;;;;;;41.43;23.70;;;;;;;2.94;100.00;146795.50;5135829;27;20235;-60
2024/01/25 05:30:39;;;;;;;41.13;22.77;;;;;;;3.12;100.00;146842.00;5136114;27;20240;-58
2024/01/25 05:33:07;;;;;;;36.90;22.23;;;;;;;3.20;100.00;146862.09;5135715;27;20244;-58
2024/01/25 05:35:35;;;;;;;32.43;21.03;;;;;;;3.12;100.00;146842.00;5136006;27;20625;-60
2024/01/25 05:38:02;;;;;;;27.03;19.23;;;;;;;3.27;100.00;146877.19;5135850;27;20183;-59
2024/01/25 05:40:29;;;;;;;25.30;19.00;;;;;;;3.21;100.00;146863.34;5135899;27;20285;-59
2024/01/25 05:42:56;;;;;;;23.73;18.23;;;;;;;3.18;100.00;146855.84;5135796;27;20602;-60
2024/01/25 05:45:24;;;;;;;25.23;19.17;;;;;;;3.23;100.00;146869.63;5135713;27;20190;-59
2024/01/25 05:47:51;;;;;;;29.30;18.10;;;;;;;3.33;100.00;146893.50;5135340;27;20183;-59
2024/01/25 05:50:20;;;;;;;23.30;17.43;;;;;;;3.25;100.00;146873.41;5135363;27;20242;-58
2024/01/25 05:52:47;;;;;;;27.57;19.37;;;;;;;3.42;100.00;146914.88;5135355;27;20248;-58
2024/01/25 05:55:15;;;;;;;24.80;19.10;;;;;;;3.43;100.00;146917.38;5135053;27;20230;-58
2024/01/25 05:57:44;;;;;;;33.90;21.20;;;;;;;3.26;100.00;146874.66;5135328;27;20281;-58
2024/01/25 06:00:15;;;;;;;48.70;29.63;;;;;;;3.16;100.00;146850.78;5135482;27;20193;-59
2024/01/25 06:02:43;;;;;;;73.67;38.47;;;;;;;3.11;100.00;146839.47;5135047;27;20195;-59
2024/01/25 06:05:10;;;;;;;59.03;33.97;;;;;;;3.26;100.00;146874.66;5135431;27;20187;-59
2024/01/25 06:07:38;;;;;;;53.27;35.00;;;;;;;3.50;100.00;146934.97;5135030;27;20191;-59
2024/01/25 06:10:06;;;;;;;58.23;35.70;;;;;;;3.73;100.00;146992.78;5133710;27;20247;-59
2024/01/25 06:12:33;;;;;;;92.00;57.30;;;;;;;4.08;100.00;147080.75;5135251;27;20674;-59
2024/01/25 06:15:00;;;;;;;66.53;37.40;;;;;;;4.36;100.00;147149.94;5134756;27;20219;-59
2024/01/25 06:17:28;;;;;;;62.17;32.67;;;;;;;4.66;100.00;147222.88;5135089;27;20622;-59
2024/01/25 06:19:55;;;;;;;51.20;30.90;;;;;;;4.78;100.00;147253.06;5135143;27;20190;-60
2024/01/25 06:22:22;;;;;;;49.53;31.43;;;;;;;5.28;100.00;147377.63;5135199;27;20232;-60
2024/01/25 06:24:50;;;;;;;50.93;30.00;;;;;;;5.46;100.00;147424.19;5135253;27;20235;-59
2024/01/25 06:27:17;;;;;;;48.47;27.43;;;;;;;5.74;100.00;147493.41;5135318;27;20220;-59
2024/01/25 06:29:44;;;;;;;34.17;24.93;;;;;;;6.12;100.00;147586.63;5135432;27;20655;-57
2024/01/25 06:32:11;;;;;;;34.17;22.47;;;;;;;6.45;100.00;147668.53;5135583;27;20236;-57
2024/01/25 06:34:38;;;;;;;27.47;22.23;;;;;;;6.60;100.00;147706.31;5135292;27;20546;-58
2024/01/25 06:37:05;;;;;;;28.10;19.23;;;;;;;7.18;100.00;147851.22;5135357;27;20236;-57
2024/01/25 06:39:34;;;;;;;35.40;20.73;;;;;;;7.40;100.00;147905.44;5134947;27;20286;-59
2024/01/25 06:42:02;;;;;;;13.13;11.03;;;;;;;7.39;100.00;147904.19;5134802;27;20203;-57
2024/01/25 06:44:29;;;;;;;8.30;7.53;;;;;;;7.99;100.00;148054.25;5134996;27;20202;-56
2024/01/25 06:46:56;;;;;;;7.30;6.60;;;;;;;8.49;100.00;148177.91;5134660;27;20179;-57
2024/01/25 06:49:23;;;;;;;7.60;6.90;;;;;;;8.87;100.00;148272.63;5134523;27;20179;-59
2024/01/25 06:51:50;;;;;;;8.30;7.60;;;;;;;9.43;100.00;148414.00;5134710;27;20610;-57
2024/01/25 06:54:17;;;;;;;9.37;8.77;;;;;;;9.72;100.00;148485.97;5134071;27;20232;-59
2024/01/25 06:56:44;;;;;;;7.30;6.80;;;;;;;10.05;100.00;148568.13;5134117;27;20240;-57
2024/01/25 06:59:13;;;;;;;7.83;7.20;;;;;;;10.42;100.00;148660.41;5134403;27;20561;-58
2024/01/25 07:01:40;;;;;;;7.10;6.50;;;;;;;10.53;100.00;148689.47;5134310;27;20629;-58
2024/01/25 07:04:07;;;;;;;7.27;6.80;;;;;;;10.58;100.00;148700.84;5134240;27;20182;-57
2024/01/25 07:06:34;;;;;;;7.80;7.30;;;;;;;10.91;100.00;148783.00;5134408;27;20203;-57
2024/01/25 07:09:02;;;;;;;7.63;7.07;;;;;;;11.04;100.00;148815.91;5133847;27;20179;-58
2024/01/25 07:11:29;;;;;;;7.40;6.90;;;;;;;11.38;100.00;148901.91;5133935;27;20265;-59
2024/01/25 07:13:56;;;;;;;9.87;6.97;;;;;;;11.58;100.00;148950.00;5133664;27;20202;-58
2024/01/25 07:16:24;;;;;;;7.83;6.90;;;;;;;11.77;100.00;148999.38;5133927;27;20263;-58
2024/01/25 07:18:51;;;;;;;10.07;8.30;;;;;;;12.07;97.92;149074.03;5133707;27;20175;-57
2024/01/25 07:21:18;;;;;;;7.50;6.87;;;;;;;12.15;94.22;149094.25;5133612;27;20636;-57
2024/01/25 07:23:45;;;;;;;7.60;7.00;;;;;;;12.34;92.93;149141.13;5134025;27;20574;-58
2024/01/25 07:26:18;;;;;;;7.53;6.93;;;;;;;12.76;89.75;149246.19;5134064;27;20187;-57
2024/01/25 07:28:46;;;;;;;9.60;7.17;;;;;;;12.91;88.53;149284.16;5133794;27;20187;-60
2024/01/25 07:31:13;;;;;;;7.97;7.03;;;;;;;13.00;86.90;149305.69;5133514;27;20179;-58
2024/01/25 07:33:41;;;;;;;7.77;7.33;;;;;;;13.77;83.06;149499.56;5133426;27;20190;-58
2024/01/25 07:36:08;;;;;;;7.30;6.90;;;;;;;14.22;78.43;149611.09;5133364;27;20228;-59
2024/01/25 07:38:35;;;;;;;8.30;7.60;;;;;;;14.99;75.59;149806.44;5133549;27;20618;-59
2024/01/25 07:41:02;;;;;;;9.40;8.47;;;;;;;15.09;73.88;149831.81;5133112;27;20182;-57
2024/01/25 07:43:29;;;;;;;8.97;8.07;;;;;;;15.21;73.67;149859.72;5133052;27;20223;-57
2024/01/25 07:45:56;;;;;;;12.10;8.73;;;;;;;15.29;71.76;149880.00;5133200;27;20179;-57
2024/01/25 07:48:23;;;;;;;11.60;8.23;;;;;;;15.88;69.41;150029.78;5132949;27;20178;-57
2024/01/25 07:50:52;;;;;;;10.40;8.40;;;;;;;16.05;66.97;150070.41;5133249;27;20191;-59
2024/01/25 07:53:19;;;;;;;14.97;7.80;;;;;;;16.29;66.04;150132.66;5133198;27;20206;-58
2024/01/25 07:55:46;;;;;;;22.67;9.90;;;;;;;16.26;66.29;150125.00;5132668;27;20234;-58
2024/01/25 07:58:13;;;;;;;33.43;10.00;;;;;;;15.99;66.44;150057.75;5132780;27;20193;-58
2024/01/25 08:00:42;;;;;;;29.50;8.60;;;;;;;16.27;65.48;150127.56;5132939;27;20235;-60
2024/01/25 08:03:09;;;;;;;22.13;10.57;;;;;;;16.05;65.75;150071.69;5132651;27;20186;-58
2024/01/25 08:05:36;;;;;;;11.93;8.50;;;;;;;15.33;68.17;149891.44;5132917;27;20178;-59
2024/01/25 08:08:05;;;;;;;8.80;8.20;;;;;;;15.68;67.50;149979.03;5132628;27;20182;-57
2024/01/25 08:10:32;;;;;;;15.13;8.37;;;;;;;15.20;67.88;149857.16;5133119;27;20595;-58
2024/01/25 08:12:59;;;;;;;10.43;8.07;;;;;;;14.70;70.81;149732.88;5133027;27;20298;-58
2024/01/25 08:15:26;;;;;;;11.73;8.00;;;;;;;15.74;67.72;149993.00;5132798;27;20268;-59
2024/01/25 08:17:53;;;;;;;8.80;7.90;;;;;;;16.50;65.45;150183.44;5133034;27;20609;-58
2024/01/25 08:20:21;;;;;;;8.57;7.73;;;;;;;16.61;65.14;150211.41;5132837;27;20236;-59
2024/01/25 08:22:48;;;;;;;7.63;6.67;;;;;;;16.00;65.11;150058.97;5132922;27;20247;-60
2024/01/25 08:25:16;;;;;;;8.43;7.93;;;;;;;15.33;68.58;149890.16;5133083;27;20236;-59
2024/01/25 08:27:43;;;;;;;10.03;7.27;;;;;;;15.42;69.03;149913.00;5132981;27;20650;-59
2024/01/25 08:30:11;;;;;;;10.23;7.97;;;;;;;15.22;69.75;149862.25;5132484;27;20198;-60
2024/01/25 08:32:38;;;;;;;10.70;8.10;;;;;;;14.51;72.19;149684.72;5131601;27;20236;-58
2024/01/25 08:35:06;;;;;;;8.87;8.07;;;;;;;14.30;74.41;149632.63;5132462;27;20217;-59
2024/01/25 08:37:33;;;;;;;12.00;8.23;;;;;;;13.65;77.40;149469.19;5133002;27;20186;-59
2024/01/25 08:40:00;;;;;;;10.70;7.67;;;;;;;12.94;83.90;149291.78;5132658;27;20625;-60
2024/01/25 08:42:29;;;;;;;8.53;7.70;;;;;;;12.65;86.92;149218.31;5132728;27;20194;-60
2024/01/25 08:44:56;;;;;;;10.90;7.87;;;;;;;12.35;89.91;149144.88;5132889;27;20260;-59
2024/01/25 08:47:23;;;;;;;19.00;9.27;;;;;;;12.83;88.77;149263.91;5132574;27;20193;-59
2024/01/25 08:49:50;;;;;;;13.53;8.90;;;;;;;12.38;90.34;149149.97;5132383;27;20183;-60
2024/01/25 08:52:17;;;;;;;19.50;9.70;;;;;;;12.32;93.53;149137.31;5132268;27;20182;-59
2024/01/25 08:54:44;;;;;;;19.60;9.73;;;;;;;12.22;93.07;149111.97;5132279;27;20226;-60
2024/01/25 08:57:11;;;;;;;24.37;9.23;;;;;;;12.26;94.14;149122.09;5132566;27;20187;-60
2024/01/25 08:59:40;;;;;;;18.17;10.20;;;;;;;12.03;97.29;149063.91;5132066;27;20243;-60
2024/01/25 09:02:08;;;;;;;24.50;12.40;;;;;;;11.95;99.86;149042.38;5132166;27;20198;-60
2024/01/25 09:04:35;;;;;;;20.90;10.40;;;;;;;12.15;97.55;149093.00;5132140;28;20412;-60
2024/01/25 09:07:03;;;;;;;16.17;9.03;;;;;;;12.41;95.55;149158.81;5131980;28;20175;-60
2024/01/25 09:09:30;;;;;;;16.47;9.30;;;;;;;12.59;93.45;149204.41;5132439;27;20186;-59
2024/01/25 09:11:57;;;;;;;12.87;7.77;;;;;;;12.45;92.52;149168.94;5132441;27;20209;-59
2024/01/25 09:14:24;;;;;;;18.40;8.10;;;;;;;12.20;94.82;149106.94;5132387;27;20565;-61
2024/01/25 09:16:52;;;;;;;29.80;10.10;;;;;;;11.97;99.54;149048.69;5132437;27;20629;-58
2024/01/25 09:19:19;;;;;;;22.33;8.63;;;;;;;11.64;100.00;148966.41;5132408;27;20694;-59
2024/01/25 09:21:47;;;;;;;10.23;7.03;;;;;;;11.50;100.00;148930.97;5132029;27;20279;-60
2024/01/25 09:24:14;;;;;;;14.77;8.90;;;;;;;11.74;100.00;148991.78;5131940;27;20629;-60
2024/01/25 09:26:41;;;;;;;23.60;9.07;;;;;;;12.02;100.00;149061.34;5132087;27;20200;-59
2024/01/25 09:29:09;;;;;;;13.60;7.73;;;;;;;11.90;100.00;149032.25;5132363;27;20187;-60
2024/01/25 09:31:36;;;;;;;26.53;9.20;;;;;;;12.26;100.00;149122.09;5132009;27;20310;-59
2024/01/25 09:34:05;;;;;;;26.47;8.67;;;;;;;13.54;92.64;149442.53;5131717;27;20183;-60
2024/01/25 09:36:32;;;;;;;9.50;7.80;;;;;;;14.39;84.01;149654.25;5131827;27;20245;-60
2024/01/25 09:38:59;;;;;;;11.20;8.13;;;;;;;15.30;78.23;149882.56;5131715;27;20236;-60
2024/01/25 09:41:26;;;;;;;11.77;6.90;;;;;;;17.02;70.88;150314.25;5131888;27;20335;-60
2024/01/25 09:43:54;;;;;;;24.97;7.80;;;;;;;17.19;69.18;150357.47;5132950;27;20225;-60
2024/01/25 09:46:21;;;;;;;19.87;7.97;;;;;;;17.55;66.44;150448.97;5135252;27;20185;-59
2024/01/25 09:48:48;;;;;;;26.67;7.23;;;;;;;17.40;65.22;150409.59;5135836;27;20215;-60
2024/01/25 09:51:17;;;;;;;13.87;6.37;;;;;;;17.01;66.99;150311.75;5135545;27;20258;-60
2024/01/25 09:53:46;;;;;;;7.07;6.30;;;;;;;17.28;67.55;150381.59;5135660;27;20207;-60
2024/01/25 09:56:14;;;;;;;7.60;6.10;;;;;;;16.90;66.95;150286.34;5135160;27;20279;-60
2024/01/25 09:58:42;;;;;;;6.63;5.50;;;;;;;16.13;69.17;150090.72;5135449;27;20239;-60
2024/01/25 10:01:12;;;;;;;14.73;5.73;;;;;;;15.35;73.89;149895.25;5135847;27;20662;-60
2024/01/25 10:03:40;;;;;;;6.17;5.77;;;;;;;15.51;73.91;149935.88;5135434;27;20183;-61
2024/01/25 10:06:08;;;;;;;5.80;5.30;;;;;;;15.93;73.15;150041.22;5135661;27;20209;-61
2024/01/25 10:08:36;;;;;;;5.87;5.40;;;;;;;17.04;70.81;150320.63;5135224;27;20179;-63
2024/01/25 10:11:04;;;;;;;7.60;6.60;;;;;;;18.16;65.59;150601.56;5135820;27;20208;-61
2024/01/25 10:13:30;;;;;;;6.87;5.87;;;;;;;18.15;63.82;150599.00;5135731;27;20193;-60
2024/01/25 10:15:57;;;;;;;5.72;5.43;;;;;;;18.17;63.11;150604.06;5135958;27;20290;-60
2024/01/25 10:18:25;;;;;;;6.70;5.68;;;;;;;18.22;62.25;150618.06;5134984;27;20437;-62
2024/01/25 10:20:54;;;;;;;8.65;5.45;;;;;;;16.73;65.30;150241.88;5135281;27;20191;-61
2024/01/25 10:23:22;;;;;;;4.93;4.70;;;;;;;15.97;68.01;150052.66;5135420;27;20202;-61
2024/01/25 10:25:50;;;;;;;8.53;5.10;;;;;;;14.99;73.46;149805.16;5134161;27;20182;-61
2024/01/25 10:28:17;;;;;;;5.43;4.87;;;;;;;14.39;79.20;149654.25;5135034;27;20673;-61
2024/01/25 10:30:44;;;;;;;5.70;5.20;;;;;;;14.34;82.26;149642.78;5134891;27;20194;-62
2024/01/25 10:33:12;;;;;;;11.40;5.53;;;;;;;13.73;86.67;149489.44;5134883;27;20264;-64
2024/01/25 10:35:41;;;;;;;7.87;5.40;;;;;;;13.17;92.48;149350.06;5134765;27;20555;-61
2024/01/25 10:38:08;;;;;;;5.00;4.70;;;;;;;13.13;93.72;149339.94;5135022;27;20564;-60
2024/01/25 10:40:36;;;;;;;10.93;5.73;;;;;;;12.79;100.00;149253.78;5134651;27;20216;-60
2024/01/25 10:43:05;;;;;;;5.97;5.63;;;;;;;12.41;100.00;149157.56;5134771;27;20179;-60
2024/01/25 10:45:32;;;;;;;6.00;5.40;;;;;;;12.19;100.00;149103.13;5134873;27;20186;-62
2024/01/25 10:48:00;;;;;;;11.00;5.97;;;;;;;11.87;100.00;149024.69;5134906;27;20186;-61
2024/01/25 10:50:27;;;;;;;8.43;5.60;;;;;;;11.61;100.00;148957.56;5134340;27;20734;-61
2024/01/25 10:52:55;;;;;;;5.60;5.20;;;;;;;11.66;100.00;148971.50;5134230;27;20248;-61
2024/01/25 10:55:23;;;;;;;5.67;5.30;;;;;;;11.34;100.00;148891.78;5133084;27;20369;-62
2024/01/25 10:57:53;;;;;;;5.50;5.10;;;;;;;11.42;100.00;148910.75;5134341;27;20594;-62
2024/01/25 11:00:22;;;;;;;6.10;5.50;;;;;;;11.69;100.00;148977.81;5134094;27;20222;-60
2024/01/25 11:02:51;;;;;;;13.90;6.17;;;;;;;11.67;100.00;148972.78;5134453;27;20194;-61
2024/01/25 11:05:20;;;;;;;5.50;5.00;;;;;;;11.58;100.00;148950.00;5133814;27;20179;-62
2024/01/25 11:07:48;;;;;;;5.47;5.17;;;;;;;11.50;100.00;148929.75;5133737;27;20216;-60
2024/01/25 11:10:18;;;;;;;7.83;5.67;;;;;;;11.39;100.00;148904.44;5134015;27;20179;-60
2024/01/25 11:12:50;;;;;;;7.67;5.50;;;;;;;11.35;100.00;148894.31;5134028;27;20630;-62
2024/01/25 11:15:23;;;;;;;8.37;5.60;;;;;;;11.23;100.00;148863.97;5133547;27;20203;-61